createdAt,value
2023-04-08T00:00:32.166Z,86.9534
2023-04-08T00:01:34.430Z,86.3753
2023-04-08T00:02:37.522Z,86.4343
2023-04-08T00:03:37.889Z,86.7647
2023-04-08T00:04:38.689Z,86.9254
2023-04-08T00:05:38.637Z,86.6702
2023-04-08T00:06:40.902Z,85.5604
2023-04-08T00:07:43.191Z,85.7836
2023-04-08T00:08:45.434Z,86.0842
2023-04-08T00:09:47.788Z,85.6292
2023-04-08T00:10:51.119Z,86.1411
2023-04-08T00:11:51.148Z,85.5613
2023-04-08T00:12:53.507Z,86.0223
2023-04-08T00:13:55.830Z,86.3913
2023-04-08T00:14:58.158Z,86.0053
2023-04-08T00:16:00.473Z,86.0183
2023-04-08T00:17:03.868Z,85.5981
2023-04-08T00:18:04.053Z,86.2405
2023-04-08T00:19:06.307Z,85.6288
2023-04-08T00:20:08.640Z,85.8195
2023-04-08T00:21:10.970Z,85.7161
2023-04-08T00:22:13.262Z,85.5899
2023-04-08T00:23:15.562Z,86.2544
2023-04-08T00:24:17.814Z,86.9335
2023-04-08T00:25:20.120Z,86.4212
2023-04-08T00:26:22.385Z,85.8746
2023-04-08T00:27:24.645Z,85.9381
2023-04-08T00:28:26.931Z,86.1813
2023-04-08T00:29:29.197Z,85.7843
2023-04-08T00:30:31.617Z,85.9923
2023-04-08T00:31:33.935Z,86.5969
2023-04-08T00:32:36.290Z,86.4048
2023-04-08T00:33:38.499Z,86.3171
2023-04-08T00:34:40.775Z,86.4082
2023-04-08T00:35:43.055Z,86.6757
2023-04-08T00:36:45.300Z,85.9527
2023-04-08T00:37:47.599Z,86.1575
2023-04-08T00:38:50.672Z,85.5397
2023-04-08T00:39:50.857Z,86.2129
2023-04-08T00:40:53.132Z,87.7298
2023-04-08T00:41:55.528Z,87.0570
2023-04-08T00:42:57.844Z,86.6410
2023-04-08T00:44:00.153Z,86.6126
2023-04-08T00:45:02.410Z,87.6336
2023-04-08T00:46:04.754Z,86.9049
2023-04-08T00:47:06.965Z,86.3222
2023-04-08T00:48:09.280Z,86.4031
2023-04-08T00:49:11.630Z,86.9014
2023-04-08T00:50:13.958Z,86.8451
2023-04-08T00:51:16.307Z,87.1300
2023-04-08T00:52:18.645Z,86.4709
2023-04-08T00:53:21.110Z,86.3759
2023-04-08T00:54:23.455Z,86.4798
2023-04-08T00:55:25.858Z,85.4195
2023-04-08T00:56:28.185Z,85.8213
2023-04-08T00:57:30.544Z,86.3837
2023-04-08T00:58:32.868Z,86.3943
2023-04-08T00:59:35.168Z,86.6231
2023-04-08T01:00:37.481Z,86.0363
2023-04-08T01:01:39.923Z,86.1034
2023-04-08T01:02:40.590Z,86.1574
2023-04-08T01:03:41.238Z,85.9275
2023-04-08T01:04:41.375Z,85.7926
2023-04-08T01:05:43.670Z,86.0197
2023-04-08T01:06:46.065Z,87.2080
2023-04-08T01:07:48.450Z,86.8294
2023-04-08T01:08:51.214Z,86.3777
2023-04-08T01:09:51.582Z,86.5009
2023-04-08T01:10:53.933Z,86.2981
2023-04-08T01:11:56.306Z,86.3126
2023-04-08T01:12:58.757Z,87.0576
2023-04-08T01:13:58.870Z,86.5225
2023-04-08T01:15:01.187Z,86.4514
2023-04-08T01:16:03.631Z,86.1024
2023-04-08T01:17:05.964Z,86.1198
2023-04-08T01:18:08.310Z,85.8212
2023-04-08T01:19:10.692Z,85.7769
2023-04-08T01:20:13.145Z,85.8460
2023-04-08T01:21:15.458Z,85.9674
2023-04-08T01:22:17.893Z,85.7757
2023-04-08T01:23:20.199Z,85.4069
2023-04-08T01:24:22.563Z,85.7807
2023-04-08T01:25:25.000Z,86.9978
2023-04-08T01:26:27.308Z,86.0507
2023-04-08T01:27:29.587Z,85.7451
2023-04-08T01:28:31.970Z,86.0593
2023-04-08T01:29:34.291Z,86.2101
2023-04-08T01:30:36.598Z,86.7013
2023-04-08T01:31:39.124Z,86.0391
2023-04-08T01:32:39.256Z,86.5636
2023-04-08T01:33:41.605Z,85.7097
2023-04-08T01:34:43.924Z,86.5653
2023-04-08T01:35:46.458Z,85.9442
2023-04-08T01:36:46.520Z,85.3274
2023-04-08T01:37:48.875Z,84.9912
2023-04-08T01:38:51.878Z,85.4134
2023-04-08T01:39:51.995Z,85.7369
2023-04-08T01:40:54.350Z,85.4760
2023-04-08T01:41:56.679Z,86.9621
2023-04-08T01:42:58.980Z,85.9343
2023-04-08T01:44:01.342Z,86.1376
2023-04-08T01:45:03.675Z,86.9003
2023-04-08T01:46:06.004Z,86.8364
2023-04-08T01:47:08.425Z,86.5779
2023-04-08T01:48:08.556Z,87.0486
2023-04-08T01:49:11.967Z,86.8474
2023-04-08T01:50:11.964Z,86.5660
2023-04-08T01:51:14.298Z,86.5120
2023-04-08T01:52:16.660Z,88.0083
2023-04-08T01:53:19.017Z,87.3123
2023-04-08T01:54:21.323Z,87.5782
2023-04-08T01:55:23.641Z,87.5009
2023-04-08T01:56:25.974Z,86.9158
2023-04-08T01:57:28.338Z,86.5337
2023-04-08T01:58:30.723Z,86.2628
2023-04-08T01:59:33.023Z,86.1784
2023-04-08T02:00:35.448Z,86.7436
2023-04-08T02:01:38.243Z,86.0742
2023-04-08T02:02:39.104Z,86.5151
2023-04-08T02:03:39.492Z,86.6221
2023-04-08T02:04:39.848Z,86.6124
2023-04-08T02:05:40.075Z,86.6718
2023-04-08T02:06:40.133Z,87.0606
2023-04-08T02:07:42.545Z,86.7016
2023-04-08T02:08:44.883Z,86.8531
2023-04-08T02:09:47.229Z,86.8532
2023-04-08T02:10:49.574Z,86.1757
2023-04-08T02:11:52.012Z,86.3701
2023-04-08T02:12:54.354Z,87.6054
2023-04-08T02:13:56.696Z,86.9607
2023-04-08T02:14:59.033Z,86.8967
2023-04-08T02:16:01.507Z,87.0169
2023-04-08T02:17:01.521Z,86.5667
2023-04-08T02:18:04.009Z,87.4511
2023-04-08T02:19:04.081Z,86.0185
2023-04-08T02:20:06.395Z,85.8984
2023-04-08T02:21:08.721Z,85.9642
2023-04-08T02:22:11.271Z,86.7938
2023-04-08T02:23:13.611Z,86.2788
2023-04-08T02:24:15.975Z,86.0692
2023-04-08T02:25:18.261Z,87.6408
2023-04-08T02:26:20.653Z,86.7828
2023-04-08T02:27:23.031Z,86.2572
2023-04-08T02:28:25.431Z,86.2867
2023-04-08T02:29:27.872Z,86.1082
2023-04-08T02:30:30.230Z,85.6703
2023-04-08T02:31:32.595Z,85.4362
2023-04-08T02:32:34.936Z,85.9433
2023-04-08T02:33:37.252Z,86.2492
2023-04-08T02:34:39.656Z,86.1232
2023-04-08T02:35:42.041Z,85.9809
2023-04-08T02:36:44.361Z,85.4497
2023-04-08T02:37:46.685Z,85.3132
2023-04-08T02:38:49.744Z,85.6575
2023-04-08T02:39:49.964Z,86.1107
2023-04-08T02:40:52.277Z,85.4150
2023-04-08T02:41:54.608Z,85.9670
2023-04-08T02:42:56.928Z,86.3332
2023-04-08T02:43:59.338Z,87.1842
2023-04-08T02:45:01.709Z,87.3550
2023-04-08T02:46:04.769Z,87.7151
2023-04-08T02:47:04.833Z,87.7470
2023-04-08T02:48:07.220Z,86.7894
2023-04-08T02:49:09.540Z,87.2835
2023-04-08T02:50:11.883Z,86.1903
2023-04-08T02:51:14.202Z,86.6342
2023-04-08T02:52:16.497Z,85.9508
2023-04-08T02:53:18.869Z,85.7642
2023-04-08T02:54:21.332Z,86.6887
2023-04-08T02:55:21.420Z,87.1403
2023-04-08T02:56:21.551Z,87.5830
2023-04-08T02:57:23.934Z,88.8566
2023-04-08T02:58:26.356Z,89.1843
2023-04-08T02:59:28.700Z,87.8589
2023-04-08T03:00:31.022Z,88.1531
2023-04-08T03:01:33.827Z,87.7251
2023-04-08T03:02:34.166Z,87.5501
2023-04-08T03:03:34.711Z,86.9467
2023-04-08T03:04:34.760Z,86.1637
2023-04-08T03:05:37.038Z,86.0704
2023-04-08T03:06:39.376Z,87.5597
2023-04-08T03:07:41.700Z,86.3537
2023-04-08T03:08:44.025Z,86.6039
2023-04-08T03:09:46.315Z,87.1230
2023-04-08T03:10:48.645Z,88.2957
2023-04-08T03:11:50.951Z,87.7591
2023-04-08T03:12:53.239Z,86.8636
2023-04-08T03:13:55.659Z,88.3128
2023-04-08T03:14:58.025Z,88.9510
2023-04-08T03:16:00.326Z,89.5648
2023-04-08T03:17:03.010Z,90.6622
2023-04-08T03:18:03.288Z,90.1988
2023-04-08T03:19:05.596Z,90.3017
2023-04-08T03:20:08.008Z,89.1295
2023-04-08T03:21:10.432Z,89.9832
2023-04-08T03:22:12.800Z,90.2404
2023-04-08T03:23:15.239Z,89.9990
2023-04-08T03:24:17.593Z,89.8694
2023-04-08T03:25:19.973Z,90.1505
2023-04-08T03:26:22.294Z,90.1691
2023-04-08T03:27:24.628Z,88.8723
2023-04-08T03:28:27.149Z,89.8810
2023-04-08T03:29:27.475Z,90.6251
2023-04-08T03:30:27.693Z,90.2423
2023-04-08T03:31:30.076Z,89.6536
2023-04-08T03:32:32.559Z,90.0419
2023-04-08T03:33:34.877Z,89.0082
2023-04-08T03:34:37.262Z,89.4177
2023-04-08T03:35:39.727Z,90.1738
2023-04-08T03:36:42.015Z,90.1957
2023-04-08T03:37:44.293Z,90.6224
2023-04-08T03:38:46.712Z,90.8493
2023-04-08T03:39:49.014Z,90.1460
2023-04-08T03:40:51.368Z,89.7775
2023-04-08T03:41:53.729Z,89.6943
2023-04-08T03:42:56.084Z,89.8543
2023-04-08T03:43:58.485Z,89.6815
2023-04-08T03:45:00.836Z,89.0383
2023-04-08T03:46:03.245Z,89.4112
2023-04-08T03:47:05.587Z,90.5409
2023-04-08T03:48:08.187Z,89.9479
2023-04-08T03:49:08.331Z,90.8486
2023-04-08T03:50:10.697Z,90.9118
2023-04-08T03:51:13.056Z,91.0125
2023-04-08T03:52:15.487Z,90.6883
2023-04-08T03:53:17.826Z,90.9729
2023-04-08T03:54:20.308Z,91.7093
2023-04-08T03:55:22.677Z,92.0944
2023-04-08T03:56:25.127Z,92.3665
2023-04-08T03:57:27.400Z,92.4460
2023-04-08T03:58:29.687Z,92.2202
2023-04-08T03:59:32.077Z,92.4473
2023-04-08T04:00:34.389Z,92.2524
2023-04-08T04:01:36.734Z,92.5507
2023-04-08T04:02:39.631Z,92.4187
2023-04-08T04:03:40.298Z,92.7844
2023-04-08T04:04:40.403Z,92.4439
2023-04-08T04:05:42.810Z,91.7862
2023-04-08T04:06:45.119Z,92.2894
2023-04-08T04:07:47.468Z,92.2170
2023-04-08T04:08:50.058Z,91.9562
2023-04-08T04:09:50.226Z,91.5501
2023-04-08T04:10:52.576Z,91.2408
2023-04-08T04:11:54.926Z,91.0596
2023-04-08T04:12:57.234Z,90.8010
2023-04-08T04:13:59.577Z,90.7079
2023-04-08T04:15:01.960Z,90.8028
2023-04-08T04:16:04.369Z,90.5894
2023-04-08T04:17:06.709Z,90.5050
2023-04-08T04:18:09.576Z,90.6131
2023-04-08T04:19:09.832Z,90.5513
2023-04-08T04:20:12.185Z,90.2085
2023-04-08T04:21:14.545Z,89.8975
2023-04-08T04:22:16.875Z,90.0648
2023-04-08T04:23:19.185Z,90.3491
2023-04-08T04:24:21.468Z,90.5045
2023-04-08T04:25:23.828Z,90.9231
2023-04-08T04:26:26.210Z,90.7966
2023-04-08T04:27:28.500Z,91.0167
2023-04-08T04:28:30.784Z,91.2269
2023-04-08T04:29:33.130Z,90.5353
2023-04-08T04:30:35.503Z,90.9344
2023-04-08T04:31:38.127Z,91.2389
2023-04-08T04:32:38.144Z,90.8643
2023-04-08T04:33:40.455Z,90.5113
2023-04-08T04:34:42.818Z,90.5859
2023-04-08T04:35:45.186Z,90.5401
2023-04-08T04:36:47.471Z,90.2866
2023-04-08T04:37:49.817Z,89.8843
2023-04-08T04:38:53.108Z,90.1601
2023-04-08T04:39:53.395Z,90.2598
2023-04-08T04:40:55.724Z,90.9816
2023-04-08T04:41:58.023Z,90.7928
2023-04-08T04:43:00.345Z,90.6036
2023-04-08T04:44:02.685Z,90.8289
2023-04-08T04:45:04.998Z,91.5523
2023-04-08T04:46:07.452Z,91.9187
2023-04-08T04:47:07.491Z,91.6384
2023-04-08T04:48:09.814Z,91.4585
2023-04-08T04:49:12.135Z,91.6386
2023-04-08T04:50:14.439Z,92.1757
2023-04-08T04:51:16.781Z,91.8451
2023-04-08T04:52:19.161Z,91.9408
2023-04-08T04:53:21.476Z,91.7457
2023-04-08T04:54:23.823Z,92.0136
2023-04-08T04:55:26.168Z,91.7423
2023-04-08T04:56:28.466Z,91.2740
2023-04-08T04:57:30.816Z,91.5002
2023-04-08T04:58:31.970Z,91.6845
2023-04-08T04:59:34.277Z,92.1139
2023-04-08T05:00:36.618Z,91.9299
2023-04-08T05:01:39.142Z,91.9482
2023-04-08T05:02:39.600Z,91.9096
2023-04-08T05:03:39.794Z,91.8280
2023-04-08T05:04:42.215Z,91.6408
2023-04-08T05:05:44.618Z,91.7923
2023-04-08T05:06:46.985Z,91.6426
2023-04-08T05:07:49.295Z,91.8156
2023-04-08T05:08:52.377Z,91.6656
2023-04-08T05:09:52.509Z,91.7193
2023-04-08T05:10:54.845Z,91.3761
2023-04-08T05:11:57.215Z,91.6138
2023-04-08T05:12:59.623Z,91.5253
2023-04-08T05:14:01.950Z,91.5541
2023-04-08T05:15:04.257Z,91.1016
2023-04-08T05:16:06.636Z,91.0736
2023-04-08T05:17:08.987Z,90.9667
2023-04-08T05:18:11.393Z,90.8595
2023-04-08T05:19:13.740Z,90.8697
2023-04-08T05:20:18.036Z,90.8873
2023-04-08T05:21:18.061Z,90.9134
2023-04-08T05:22:20.458Z,91.0711
2023-04-08T05:23:22.772Z,90.7798
2023-04-08T05:24:25.084Z,90.9782
2023-04-08T05:25:27.481Z,90.5314
2023-04-08T05:26:29.721Z,90.2519
2023-04-08T05:27:32.043Z,90.1289
2023-04-08T05:28:34.402Z,90.4642
2023-04-08T05:29:35.519Z,90.3949
2023-04-08T05:30:37.863Z,90.5464
2023-04-08T05:31:40.314Z,90.5850
2023-04-08T05:32:42.749Z,90.2636
2023-04-08T05:33:45.122Z,90.5628
2023-04-08T05:34:47.537Z,91.2851
2023-04-08T05:35:50.049Z,91.2684
2023-04-08T05:36:50.163Z,90.5611
2023-04-08T05:37:52.583Z,90.7922
2023-04-08T05:38:55.018Z,90.6579
2023-04-08T05:39:57.407Z,91.1376
2023-04-08T05:40:59.811Z,90.5030
2023-04-08T05:42:02.252Z,90.4500
2023-04-08T05:43:04.649Z,90.8365
2023-04-08T05:44:07.050Z,90.5201
2023-04-08T05:45:09.431Z,90.3821
2023-04-08T05:46:11.830Z,89.9405
2023-04-08T05:47:14.191Z,90.0006
2023-04-08T05:48:16.664Z,90.1089
2023-04-08T05:49:19.046Z,90.1207
2023-04-08T05:50:21.423Z,90.1687
2023-04-08T05:51:23.798Z,90.2365
2023-04-08T05:52:26.249Z,89.9020
2023-04-08T05:53:28.634Z,89.8886
2023-04-08T05:54:30.973Z,90.0293
2023-04-08T05:55:33.335Z,90.1631
2023-04-08T05:56:35.833Z,89.6679
2023-04-08T05:57:36.028Z,90.4843
2023-04-08T05:58:38.435Z,90.8554
2023-04-08T05:59:38.612Z,90.3323
2023-04-08T06:00:41.029Z,89.9654
2023-04-08T06:01:41.188Z,90.0611
2023-04-08T06:02:44.036Z,90.2934
2023-04-08T06:03:45.179Z,89.9626
2023-04-08T06:04:45.813Z,89.2653
2023-04-08T06:05:46.316Z,90.1666
2023-04-08T06:06:48.704Z,89.7260
2023-04-08T06:07:51.128Z,89.7852
2023-04-08T06:08:53.559Z,89.6596
2023-04-08T06:09:55.930Z,89.6763
2023-04-08T06:10:58.295Z,89.0361
2023-04-08T06:11:58.467Z,88.9195
2023-04-08T06:13:00.932Z,88.7470
2023-04-08T06:14:03.304Z,88.7716
2023-04-08T06:15:05.785Z,88.5960
2023-04-08T06:16:06.053Z,88.6017
2023-04-08T06:17:06.336Z,88.4621
2023-04-08T06:18:08.692Z,88.4489
2023-04-08T06:19:09.265Z,89.2687
2023-04-08T06:20:09.389Z,89.3612
2023-04-08T06:21:11.849Z,88.8829
2023-04-08T06:22:12.007Z,89.0961
2023-04-08T06:23:13.116Z,89.7076
2023-04-08T06:24:15.478Z,88.3678
2023-04-08T06:25:17.904Z,88.3757
2023-04-08T06:26:20.259Z,89.1681
2023-04-08T06:27:22.671Z,88.9131
2023-04-08T06:28:25.055Z,88.0669
2023-04-08T06:29:27.520Z,88.2818
2023-04-08T06:30:29.867Z,88.3226
2023-04-08T06:31:32.290Z,88.1069
2023-04-08T06:32:34.754Z,86.7277
2023-04-08T06:33:37.107Z,86.9291
2023-04-08T06:34:39.502Z,87.2808
2023-04-08T06:35:41.925Z,87.3934
2023-04-08T06:36:42.092Z,87.6183
2023-04-08T06:37:42.506Z,87.2421
2023-04-08T06:38:44.834Z,87.4015
2023-04-08T06:39:47.227Z,87.2639
2023-04-08T06:40:49.683Z,87.2225
2023-04-08T06:41:49.815Z,87.2150
2023-04-08T06:42:52.221Z,87.2776
2023-04-08T06:43:52.501Z,86.6308
2023-04-08T06:44:52.608Z,87.0020
2023-04-08T06:45:55.036Z,86.6836
2023-04-08T06:46:57.405Z,87.0538
2023-04-08T06:47:59.983Z,86.8187
2023-04-08T06:49:00.050Z,86.8654
2023-04-08T06:50:02.392Z,86.9533
2023-04-08T06:51:04.915Z,87.7950
2023-04-08T06:52:05.152Z,87.5232
2023-04-08T06:53:07.523Z,86.8393
2023-04-08T06:54:09.965Z,86.2242
2023-04-08T06:55:12.330Z,86.0334
2023-04-08T06:56:14.807Z,85.1314
2023-04-08T06:57:14.893Z,84.7517
2023-04-08T06:58:17.230Z,85.0168
2023-04-08T06:59:19.627Z,85.5312
2023-04-08T07:00:22.043Z,84.9494
2023-04-08T07:01:24.612Z,85.2021
2023-04-08T07:02:25.142Z,84.7353
2023-04-08T07:03:25.490Z,84.6118
2023-04-08T07:04:25.834Z,85.2179
2023-04-08T07:05:26.022Z,85.5646
2023-04-08T07:06:26.090Z,84.6458
2023-04-08T07:07:28.492Z,84.4289
2023-04-08T07:08:30.872Z,84.6943
2023-04-08T07:09:33.193Z,84.4121
2023-04-08T07:10:35.592Z,84.1755
2023-04-08T07:11:38.196Z,84.6433
2023-04-08T07:12:38.231Z,83.8079
2023-04-08T07:13:40.652Z,84.1430
2023-04-08T07:14:44.073Z,83.6825
2023-04-08T07:15:44.127Z,83.7206
2023-04-08T07:16:46.589Z,83.9930
2023-04-08T07:17:46.884Z,83.9065
2023-04-08T07:18:46.924Z,84.3588
2023-04-08T07:19:49.308Z,84.4039
2023-04-08T07:20:51.693Z,84.3780
2023-04-08T07:21:54.118Z,84.5342
2023-04-08T07:22:54.217Z,84.6512
2023-04-08T07:23:56.623Z,84.0218
2023-04-08T07:24:58.952Z,83.7971
2023-04-08T07:26:01.376Z,83.3930
2023-04-08T07:27:03.737Z,83.1367
2023-04-08T07:28:03.941Z,82.8694
2023-04-08T07:29:04.083Z,83.6672
2023-04-08T07:30:06.418Z,83.5134
2023-04-08T07:31:08.944Z,84.6622
2023-04-08T07:32:08.998Z,84.8444
2023-04-08T07:33:11.561Z,84.2921
2023-04-08T07:34:11.599Z,84.2421
2023-04-08T07:35:13.934Z,84.0337
2023-04-08T07:36:16.322Z,83.9700
2023-04-08T07:37:18.682Z,83.6150
2023-04-08T07:38:18.860Z,83.0265
2023-04-08T07:39:21.209Z,83.6824
2023-04-08T07:40:23.631Z,84.1672
2023-04-08T07:41:27.063Z,84.6335
2023-04-08T07:42:27.262Z,84.0654
2023-04-08T07:43:27.345Z,83.9772
2023-04-08T07:44:29.704Z,83.9425
2023-04-08T07:45:32.115Z,83.9994
2023-04-08T07:46:34.712Z,84.1606
2023-04-08T07:47:34.946Z,83.4230
2023-04-08T07:48:37.309Z,83.0662
2023-04-08T07:49:39.727Z,83.1311
2023-04-08T07:51:09.952Z,82.8668
2023-04-08T07:51:42.540Z,83.8326
2023-04-08T07:52:43.713Z,83.5750
2023-04-08T07:53:43.921Z,83.1518
2023-04-08T07:54:46.465Z,82.6958
2023-04-08T07:55:46.611Z,82.0804
2023-04-08T07:56:47.042Z,82.3448
2023-04-08T07:57:47.313Z,82.3160
2023-04-08T07:58:47.842Z,82.6716
2023-04-08T07:59:47.865Z,82.6716
2023-04-08T08:00:50.240Z,82.5614
2023-04-08T08:01:52.711Z,83.1120
2023-04-08T08:02:53.175Z,82.3701
2023-04-08T08:03:55.301Z,82.3984
2023-04-08T08:04:53.780Z,82.7281
2023-04-08T08:05:53.820Z,83.0443
2023-04-08T08:06:56.124Z,82.6333
2023-04-08T08:07:58.513Z,82.7358
2023-04-08T08:09:00.925Z,83.5087
2023-04-08T08:10:00.974Z,83.5470
2023-04-08T08:11:03.393Z,83.4341
2023-04-08T08:12:03.455Z,83.2805
2023-04-08T08:13:05.959Z,82.7445
2023-04-08T08:14:06.064Z,82.4894
2023-04-08T08:15:08.422Z,82.5897
2023-04-08T08:16:08.809Z,80.8852
2023-04-08T08:17:09.192Z,81.6772
2023-04-08T08:18:11.880Z,82.4311
2023-04-08T08:19:11.971Z,81.4158
2023-04-08T08:20:14.327Z,80.7333
2023-04-08T08:21:16.727Z,82.1436
2023-04-08T08:22:19.030Z,81.4294
2023-04-08T08:23:21.358Z,81.3491
2023-04-08T08:24:23.811Z,81.5394
2023-04-08T08:25:26.911Z,80.8690
2023-04-08T08:26:26.996Z,80.8745
2023-04-08T08:27:29.372Z,81.6775
2023-04-08T08:28:31.738Z,80.7321
2023-04-08T08:29:34.104Z,80.3082
2023-04-08T08:30:36.392Z,80.3465
2023-04-08T08:31:38.882Z,80.2308
2023-04-08T08:32:39.018Z,78.2236
2023-04-08T08:33:39.071Z,78.2024
2023-04-08T08:34:41.416Z,79.5333
2023-04-08T08:35:43.821Z,80.0005
2023-04-08T08:36:43.837Z,79.7781
2023-04-08T08:37:46.337Z,79.9539
2023-04-08T08:38:48.669Z,80.4315
2023-04-08T08:39:51.014Z,80.0592
2023-04-08T08:40:53.326Z,79.5144
2023-04-08T08:41:55.701Z,79.0468
2023-04-08T08:42:58.068Z,78.9789
2023-04-08T08:44:00.420Z,79.5180
2023-04-08T08:45:03.062Z,78.9004
2023-04-08T08:46:03.155Z,78.4700
2023-04-08T08:47:05.617Z,77.8336
2023-04-08T08:48:05.658Z,78.5836
2023-04-08T08:49:08.049Z,79.2060
2023-04-08T08:50:10.355Z,78.6865
2023-04-08T08:51:12.850Z,78.5055
2023-04-08T08:52:12.907Z,78.9946
2023-04-08T08:53:15.257Z,79.7005
2023-04-08T08:54:17.608Z,79.2010
2023-04-08T08:55:41.861Z,79.0631
2023-04-08T08:56:20.457Z,78.9790
2023-04-08T08:57:22.729Z,77.9792
2023-04-08T08:58:25.126Z,78.3617
2023-04-08T08:59:27.483Z,77.8745
2023-04-08T09:00:29.806Z,77.9834
2023-04-08T09:01:32.463Z,76.6221
2023-04-08T09:02:33.744Z,76.8786
2023-04-08T09:03:34.403Z,75.7982
2023-04-08T09:04:34.907Z,75.7239
2023-04-08T09:05:35.807Z,77.0612
2023-04-08T09:06:35.897Z,76.9531
2023-04-08T09:07:38.264Z,77.3076
2023-04-08T09:08:40.565Z,76.9694
2023-04-08T09:09:43.741Z,77.5528
2023-04-08T09:10:46.061Z,77.2163
2023-04-08T09:11:48.404Z,75.2235
2023-04-08T09:12:50.751Z,74.6656
2023-04-08T09:13:53.166Z,75.6018
2023-04-08T09:14:54.202Z,75.6241
2023-04-08T09:15:54.340Z,75.5879
2023-04-08T09:16:54.582Z,75.2689
2023-04-08T09:17:54.921Z,77.1594
2023-04-08T09:18:54.955Z,76.9921
2023-04-08T09:19:57.396Z,76.4095
2023-04-08T09:20:57.581Z,76.0143
2023-04-08T09:21:57.582Z,76.5801
2023-04-08T09:22:59.952Z,75.9143
2023-04-08T09:24:02.316Z,75.5463
2023-04-08T09:25:04.657Z,75.5000
2023-04-08T09:26:06.943Z,75.2053
2023-04-08T09:27:09.277Z,75.5130
2023-04-08T09:28:11.617Z,75.6522
2023-04-08T09:29:26.370Z,74.6813
2023-04-08T09:30:14.472Z,75.4616
2023-04-08T09:31:16.836Z,75.6358
2023-04-08T09:32:19.178Z,74.2242
2023-04-08T09:33:21.674Z,74.8307
2023-04-08T09:34:21.721Z,74.8281
2023-04-08T09:35:24.058Z,75.6993
2023-04-08T09:36:26.321Z,74.3474
2023-04-08T09:37:28.663Z,75.0862
2023-04-08T09:38:30.998Z,74.2932
2023-04-08T09:39:33.364Z,75.6232
2023-04-08T09:40:35.629Z,76.5781
2023-04-08T09:41:38.020Z,76.1452
2023-04-08T09:42:40.330Z,75.2547
2023-04-08T09:43:42.712Z,75.2904
2023-04-08T09:44:45.128Z,75.3696
2023-04-08T09:45:45.206Z,75.1169
2023-04-08T09:46:45.279Z,75.0091
2023-04-08T09:47:47.664Z,75.2767
2023-04-08T09:48:49.989Z,74.8803
2023-04-08T09:49:52.347Z,73.9782
2023-04-08T09:50:54.652Z,74.5877
2023-04-08T09:51:56.943Z,74.7085
2023-04-08T09:52:59.309Z,74.9080
2023-04-08T09:54:01.610Z,74.9538
2023-04-08T09:55:03.928Z,75.1447
2023-04-08T09:56:06.295Z,74.8355
2023-04-08T09:57:08.647Z,74.9925
2023-04-08T09:58:10.961Z,73.9422
2023-04-08T09:59:13.289Z,73.7874
2023-04-08T10:00:15.598Z,73.6986
2023-04-08T10:01:17.965Z,74.5175
2023-04-08T10:02:20.543Z,73.8359
2023-04-08T10:03:21.425Z,74.0675
2023-04-08T10:04:21.919Z,74.0492
2023-04-08T10:05:22.023Z,73.9092
2023-04-08T10:06:24.453Z,72.8387
2023-04-08T10:07:26.830Z,73.3287
2023-04-08T10:08:29.211Z,73.1366
2023-04-08T10:09:31.549Z,72.6093
2023-04-08T10:10:33.976Z,73.5405
2023-04-08T10:11:34.063Z,73.2060
2023-04-08T10:12:34.357Z,72.9681
2023-04-08T10:13:34.502Z,72.5143
2023-04-08T10:14:34.596Z,73.2647
2023-04-08T10:15:37.022Z,71.6585
2023-04-08T10:16:39.501Z,72.1488
2023-04-08T10:17:39.714Z,70.1706
2023-04-08T10:18:39.769Z,69.5470
2023-04-08T10:19:42.368Z,67.8010
2023-04-08T10:20:42.450Z,67.5016
2023-04-08T10:21:44.780Z,66.4021
2023-04-08T10:22:47.141Z,65.2217
2023-04-08T10:23:49.979Z,65.3239
2023-04-08T10:24:50.400Z,65.0812
2023-04-08T10:25:52.731Z,66.0950
2023-04-08T10:26:52.929Z,67.6190
2023-04-08T10:27:55.231Z,67.1496
2023-04-08T10:28:57.620Z,66.2775
2023-04-08T10:29:59.974Z,65.4748
2023-04-08T10:31:02.247Z,64.3128
2023-04-08T10:32:04.762Z,64.2549
2023-04-08T10:33:04.853Z,65.0244
2023-04-08T10:34:05.025Z,64.8099
2023-04-08T10:35:05.124Z,64.4300
2023-04-08T10:36:05.246Z,63.4641
2023-04-08T10:37:05.268Z,63.7291
2023-04-08T10:38:07.635Z,64.7623
2023-04-08T10:39:07.687Z,64.0694
2023-04-08T10:40:10.014Z,63.7002
2023-04-08T10:41:12.408Z,64.2874
2023-04-08T10:42:12.487Z,64.4338
2023-04-08T10:43:12.542Z,65.6987
2023-04-08T10:44:14.864Z,65.3819
2023-04-08T10:45:17.250Z,65.3526
2023-04-08T10:46:17.535Z,66.2319
2023-04-08T10:47:17.677Z,66.2496
2023-04-08T10:48:19.962Z,66.0496
2023-04-08T10:49:22.362Z,66.5876
2023-04-08T10:50:24.776Z,66.2029
2023-04-08T10:51:24.859Z,66.6356
2023-04-08T10:52:27.381Z,67.2225
2023-04-08T10:53:27.384Z,66.6888
2023-04-08T10:54:29.720Z,66.6138
2023-04-08T10:55:32.020Z,67.0184
2023-04-08T10:56:34.394Z,66.9906
2023-04-08T10:57:36.756Z,67.0561
2023-04-08T10:58:39.093Z,66.7477
2023-04-08T10:59:41.454Z,66.6988
2023-04-08T11:00:43.780Z,66.5737
2023-04-08T11:01:46.361Z,65.8764
2023-04-08T11:02:46.841Z,65.6808
2023-04-08T11:03:47.512Z,65.1097
2023-04-08T11:04:47.822Z,65.4326
2023-04-08T11:05:50.159Z,64.6282
2023-04-08T11:06:52.578Z,64.4975
2023-04-08T11:07:52.642Z,64.2649
2023-04-08T11:08:54.989Z,63.6795
2023-04-08T11:09:55.064Z,62.7400
2023-04-08T11:10:57.364Z,62.4749
2023-04-08T11:11:59.740Z,63.8931
2023-04-08T11:13:02.175Z,63.8991
2023-04-08T11:14:02.231Z,63.9849
2023-04-08T11:15:04.565Z,62.6925
2023-04-08T11:16:18.178Z,63.9007
2023-04-08T11:17:07.368Z,63.5445
2023-04-08T11:18:07.579Z,63.0823
2023-04-08T11:19:07.701Z,61.6281
2023-04-08T11:20:07.741Z,62.2752
2023-04-08T11:21:07.875Z,63.2559
2023-04-08T11:22:07.996Z,63.2179
2023-04-08T11:23:08.044Z,63.7022
2023-04-08T11:24:10.382Z,63.0528
2023-04-08T11:25:10.475Z,61.9269
2023-04-08T11:26:10.546Z,62.0859
2023-04-08T11:27:10.577Z,62.1049
2023-04-08T11:28:12.939Z,62.5101
2023-04-08T11:29:15.305Z,62.0983
2023-04-08T11:30:15.350Z,59.6884
2023-04-08T11:31:15.614Z,59.6450
2023-04-08T11:32:15.719Z,57.4483
2023-04-08T11:33:15.782Z,57.8533
2023-04-08T11:34:18.044Z,57.8483
2023-04-08T11:35:20.382Z,58.3572
2023-04-08T11:36:22.727Z,57.7604
2023-04-08T11:37:29.605Z,58.0532
2023-04-08T11:38:27.449Z,57.9069
2023-04-08T11:39:29.902Z,58.5246
2023-04-08T11:40:29.923Z,58.1144
2023-04-08T11:41:32.226Z,58.5778
2023-04-08T11:42:32.319Z,57.9339
2023-04-08T11:43:32.378Z,55.7514
2023-04-08T11:44:32.438Z,56.3357
2023-04-08T11:45:32.467Z,56.8259
2023-04-08T11:46:34.914Z,56.1471
2023-04-08T11:47:35.344Z,53.9015
2023-04-08T11:48:35.447Z,54.7770
2023-04-08T11:49:35.458Z,56.4361
2023-04-08T11:50:35.513Z,56.0862
2023-04-08T11:51:35.604Z,55.7864
2023-04-08T11:52:35.622Z,53.7500
2023-04-08T11:53:37.979Z,54.3069
2023-04-08T11:54:37.922Z,53.4250
2023-04-08T11:55:40.214Z,56.0770
2023-04-08T11:56:42.500Z,54.6914
2023-04-08T11:57:42.490Z,53.3065
2023-04-08T11:58:44.849Z,52.4067
2023-04-08T11:59:44.911Z,50.6902
2023-04-08T12:00:44.906Z,51.8391
2023-04-08T12:01:47.508Z,51.8275
2023-04-08T12:02:47.568Z,52.7030
2023-04-08T12:03:47.855Z,54.0115
2023-04-08T12:04:47.919Z,55.1838
2023-04-08T12:05:50.153Z,55.5943
2023-04-08T12:06:52.417Z,56.6610
2023-04-08T12:07:52.453Z,56.2110
2023-04-08T12:08:52.514Z,55.8542
2023-04-08T12:09:52.515Z,57.2948
2023-04-08T12:10:52.617Z,61.4208
2023-04-08T12:11:52.602Z,59.9225
2023-04-08T12:12:54.921Z,59.0022
2023-04-08T12:13:57.305Z,59.1129
2023-04-08T12:14:57.308Z,59.4311
2023-04-08T12:15:59.734Z,60.3921
2023-04-08T12:16:59.821Z,60.9309
2023-04-08T12:17:59.879Z,61.7096
2023-04-08T12:19:02.214Z,60.7726
2023-04-08T12:20:02.244Z,61.0631
2023-04-08T12:21:04.570Z,60.3800
2023-04-08T12:22:06.922Z,60.9970
2023-04-08T12:23:06.984Z,63.0199
2023-04-08T12:24:09.480Z,63.6105
2023-04-08T12:25:09.523Z,63.8153
2023-04-08T12:26:11.890Z,64.9152
2023-04-08T12:27:11.987Z,65.1668